createdAt,value
2022-10-09T00:01:51.355Z,17.65
2022-10-09T00:04:18.610Z,16.27
2022-10-09T00:06:46.001Z,16.80
2022-10-09T00:09:14.332Z,17.50
2022-10-09T00:11:41.568Z,20.23
2022-10-09T00:14:08.885Z,20.95
2022-10-09T00:16:36.295Z,18.95
2022-10-09T00:19:03.653Z,17.13
2022-10-09T00:21:34.719Z,15.82
2022-10-09T00:24:03.468Z,16.10
2022-10-09T00:26:30.777Z,21.48
2022-10-09T00:28:58.401Z,16.80
2022-10-09T00:31:25.801Z,17.15
2022-10-09T00:33:53.038Z,17.88
2022-10-09T00:36:21.465Z,21.13
2022-10-09T00:38:49.176Z,23.25
2022-10-09T00:41:18.448Z,18.67
2022-10-09T00:43:47.710Z,19.58
2022-10-09T00:46:34.763Z,20.13
2022-10-09T00:49:04.314Z,17.75
2022-10-09T00:51:32.488Z,19.17
2022-10-09T00:54:00.342Z,16.85
2022-10-09T00:56:28.302Z,15.80
2022-10-09T00:58:57.027Z,21.63
2022-10-09T01:01:24.403Z,19.13
2022-10-09T01:03:51.702Z,19.25
2022-10-09T01:06:31.280Z,18.15
2022-10-09T01:09:24.889Z,17.42
2022-10-09T01:12:11.099Z,14.55
2022-10-09T01:14:45.496Z,21.63
2022-10-09T01:17:20.876Z,20.00
2022-10-09T01:19:57.824Z,15.35
2022-10-09T01:22:44.024Z,21.73
2022-10-09T01:25:15.872Z,17.13
2022-10-09T01:27:43.172Z,13.00
2022-10-09T01:30:11.725Z,17.52
2022-10-09T01:32:40.563Z,18.50
2022-10-09T01:35:09.526Z,14.00
2022-10-09T01:37:37.837Z,15.63
2022-10-09T01:40:06.098Z,18.55
2022-10-09T01:42:33.486Z,18.42
2022-10-09T01:45:00.776Z,15.05
2022-10-09T01:47:28.175Z,15.80
2022-10-09T01:50:16.995Z,12.77
2022-10-09T01:53:03.128Z,12.63
2022-10-09T01:55:33.208Z,18.33
2022-10-09T01:58:11.668Z,11.70
2022-10-09T02:00:41.472Z,14.40
2022-10-09T02:03:10.452Z,13.98
2022-10-09T02:05:38.022Z,13.33
2022-10-09T02:08:05.265Z,10.40
2022-10-09T02:10:33.334Z,11.77
2022-10-09T02:13:01.183Z,11.70
2022-10-09T02:15:31.696Z,15.13
2022-10-09T02:18:03.193Z,17.25
2022-10-09T02:20:33.406Z,10.02
2022-10-09T02:23:03.030Z,15.15
2022-10-09T02:25:30.475Z,8.27
2022-10-09T02:27:57.854Z,14.25
2022-10-09T02:30:27.836Z,11.10
2022-10-09T02:35:22.606Z,12.40
2022-10-09T02:37:49.828Z,13.63
2022-10-09T02:40:17.153Z,12.63
2022-10-09T02:42:44.392Z,12.68
2022-10-09T02:45:11.741Z,12.95
2022-10-09T02:47:39.050Z,8.80
2022-10-09T02:50:06.619Z,11.20
2022-10-09T02:52:33.907Z,10.82
2022-10-09T02:55:01.152Z,14.18
2022-10-09T02:57:28.471Z,12.00
2022-10-09T02:59:55.737Z,12.40
2022-10-09T03:02:23.189Z,11.38
2022-10-09T03:04:50.552Z,13.40
2022-10-09T03:07:17.840Z,12.57
2022-10-09T03:09:45.152Z,14.40
2022-10-09T03:12:12.447Z,17.45
2022-10-09T03:14:39.693Z,14.93
2022-10-09T03:17:06.978Z,11.07
2022-10-09T03:19:34.270Z,10.27
2022-10-09T03:22:01.526Z,13.82
2022-10-09T03:24:28.768Z,7.85
2022-10-09T03:26:56.068Z,11.68
2022-10-09T03:29:23.532Z,14.02
2022-10-09T03:31:52.835Z,12.85
2022-10-09T03:34:20.687Z,9.93
2022-10-09T03:36:47.981Z,8.13
2022-10-09T03:39:15.297Z,7.20
2022-10-09T03:41:42.596Z,6.68
2022-10-09T03:44:09.860Z,13.07
2022-10-09T03:46:37.201Z,11.10
2022-10-09T03:49:04.541Z,10.88
2022-10-09T03:51:31.889Z,8.20
2022-10-09T03:53:59.158Z,10.02
2022-10-09T03:56:26.472Z,8.45
2022-10-09T03:58:53.762Z,8.15
2022-10-09T04:01:21.140Z,11.98
2022-10-09T04:03:48.447Z,11.45
2022-10-09T04:06:15.821Z,15.05
2022-10-09T04:08:43.165Z,9.75
2022-10-09T04:11:10.453Z,10.80
2022-10-09T04:13:37.768Z,9.40
2022-10-09T04:16:05.291Z,13.90
2022-10-09T04:18:32.612Z,9.43
2022-10-09T04:20:59.957Z,15.00
2022-10-09T04:23:28.153Z,9.52
2022-10-09T04:25:59.613Z,11.10
2022-10-09T04:28:28.233Z,9.75
2022-10-09T04:30:57.394Z,14.07
2022-10-09T04:33:25.344Z,9.07
2022-10-09T04:35:53.719Z,10.98
2022-10-09T04:38:21.789Z,10.90
2022-10-09T04:41:01.023Z,8.02
2022-10-09T04:43:28.393Z,8.98
2022-10-09T04:45:55.885Z,11.52
2022-10-09T04:48:23.524Z,11.85
2022-10-09T04:50:50.866Z,12.20
2022-10-09T04:53:18.335Z,7.28
2022-10-09T04:55:46.005Z,8.07
2022-10-09T04:58:14.009Z,8.35
2022-10-09T05:00:42.431Z,10.52
2022-10-09T05:03:10.185Z,10.23
2022-10-09T05:05:37.605Z,7.97
2022-10-09T05:08:05.078Z,6.45
2022-10-09T05:10:33.196Z,8.50
2022-10-09T05:13:00.869Z,9.85
2022-10-09T05:15:28.333Z,6.97
2022-10-09T05:17:55.691Z,9.45
2022-10-09T05:20:23.000Z,8.80
2022-10-09T05:22:50.552Z,9.48
2022-10-09T05:25:18.158Z,10.05
2022-10-09T05:27:45.416Z,6.25
2022-10-09T05:30:12.819Z,9.35
2022-10-09T05:32:40.090Z,13.68
2022-10-09T05:35:07.908Z,8.80
2022-10-09T05:37:35.202Z,8.25
2022-10-09T05:40:04.877Z,10.07
2022-10-09T05:42:32.168Z,7.40
2022-10-09T05:44:59.480Z,7.60
2022-10-09T05:47:28.850Z,8.07
2022-10-09T05:49:56.122Z,13.10
2022-10-09T05:52:25.177Z,7.95
2022-10-09T05:54:52.929Z,6.20
2022-10-09T05:57:20.700Z,7.55
2022-10-09T05:59:51.953Z,8.68
2022-10-09T06:02:19.285Z,7.15
2022-10-09T06:04:46.647Z,9.60
2022-10-09T06:07:14.298Z,7.00
2022-10-09T06:09:43.019Z,7.30
2022-10-09T06:12:10.619Z,8.63
2022-10-09T06:14:38.361Z,6.68
2022-10-09T06:17:05.733Z,8.88
2022-10-09T06:19:33.714Z,5.82
2022-10-09T06:22:01.025Z,7.95
2022-10-09T06:24:29.510Z,12.90
2022-10-09T06:26:59.414Z,7.40
2022-10-09T06:29:28.815Z,6.10
2022-10-09T06:31:56.098Z,8.80
2022-10-09T06:34:23.542Z,10.77
2022-10-09T06:36:51.182Z,7.70
2022-10-09T06:39:18.584Z,8.18
2022-10-09T06:41:46.102Z,8.52
2022-10-09T06:44:17.177Z,10.43
2022-10-09T06:46:45.271Z,4.55
2022-10-09T06:49:12.748Z,11.48
2022-10-09T06:51:41.006Z,9.15
2022-10-09T06:54:11.753Z,11.07
2022-10-09T06:56:39.842Z,8.70
2022-10-09T06:59:07.815Z,7.90
2022-10-09T07:01:35.865Z,4.28
2022-10-09T07:04:07.079Z,7.65
2022-10-09T07:06:35.761Z,8.93
2022-10-09T07:09:05.102Z,8.65
2022-10-09T07:11:52.692Z,6.00
2022-10-09T07:14:19.979Z,7.35
2022-10-09T07:16:48.655Z,5.30
2022-10-09T07:19:17.649Z,7.78
2022-10-09T07:21:46.332Z,7.40
2022-10-09T07:24:13.846Z,5.75
2022-10-09T07:26:42.620Z,4.80
2022-10-09T07:29:10.763Z,5.88
2022-10-09T07:31:39.698Z,8.00
2022-10-09T07:34:07.110Z,4.63
2022-10-09T07:36:34.796Z,4.90
2022-10-09T07:39:02.342Z,2.33
2022-10-09T07:41:31.024Z,7.43
2022-10-09T07:43:58.905Z,2.90
2022-10-09T07:46:33.032Z,5.22
2022-10-09T07:49:01.122Z,6.65
2022-10-09T07:51:29.343Z,4.65
2022-10-09T07:53:57.640Z,5.18
2022-10-09T07:56:29.134Z,6.28
2022-10-09T07:58:57.857Z,3.55
2022-10-09T08:01:25.628Z,6.43
2022-10-09T08:03:54.746Z,5.50
2022-10-09T08:06:22.230Z,2.53
2022-10-09T08:08:55.652Z,6.95
2022-10-09T08:11:23.748Z,3.13
2022-10-09T08:13:51.406Z,2.80
2022-10-09T08:16:19.231Z,5.03
2022-10-09T08:18:47.669Z,5.32
2022-10-09T08:21:16.925Z,2.55
2022-10-09T08:23:45.812Z,5.25
2022-10-09T08:26:14.150Z,4.10
2022-10-09T08:28:42.922Z,2.83
2022-10-09T08:31:10.908Z,4.25
2022-10-09T08:33:39.849Z,3.65
2022-10-09T08:36:07.993Z,6.03
2022-10-09T08:38:47.037Z,2.08
2022-10-09T08:41:38.073Z,2.97
2022-10-09T08:44:24.144Z,7.43
2022-10-09T08:47:10.394Z,4.05
2022-10-09T08:49:56.402Z,7.10
2022-10-09T08:52:23.695Z,3.90
2022-10-09T08:54:51.767Z,5.13
2022-10-09T08:57:19.049Z,2.83
2022-10-09T08:59:46.456Z,4.40
2022-10-09T09:02:16.848Z,3.97
2022-10-09T09:05:03.607Z,5.18
2022-10-09T09:07:37.787Z,3.58
2022-10-09T09:10:11.022Z,1.95
2022-10-09T09:12:46.259Z,4.18
2022-10-09T09:15:30.465Z,3.40
2022-10-09T09:17:57.716Z,3.17
2022-10-09T09:20:31.078Z,2.80
2022-10-09T09:23:00.002Z,5.18
2022-10-09T09:25:29.438Z,3.20
2022-10-09T09:27:59.872Z,3.17
2022-10-09T09:30:34.714Z,1.60
2022-10-09T09:33:23.867Z,3.95
2022-10-09T09:35:59.831Z,3.58
2022-10-09T09:38:27.972Z,6.57
2022-10-09T09:40:57.761Z,1.65
2022-10-09T09:43:26.516Z,11.10
2022-10-09T09:45:59.264Z,2.67
2022-10-09T09:48:28.483Z,3.78
2022-10-09T09:51:16.119Z,4.80
2022-10-09T09:53:45.870Z,5.03
2022-10-09T09:56:13.103Z,5.25
2022-10-09T09:58:45.152Z,5.95
2022-10-09T10:01:20.847Z,4.07
2022-10-09T10:03:50.573Z,4.25
2022-10-09T10:06:38.063Z,2.55
2022-10-09T10:09:06.711Z,5.20
2022-10-09T10:11:35.844Z,2.30
2022-10-09T10:14:07.988Z,6.07
2022-10-09T10:16:36.967Z,3.17
2022-10-09T10:19:06.487Z,3.72
2022-10-09T10:21:49.181Z,4.63
2022-10-09T10:24:21.169Z,2.88
2022-10-09T10:27:01.790Z,4.45
2022-10-09T10:29:45.300Z,3.20
2022-10-09T10:32:12.595Z,3.35
2022-10-09T10:34:44.786Z,5.40
2022-10-09T10:37:14.945Z,2.22
2022-10-09T10:39:42.948Z,4.53
2022-10-09T10:42:19.634Z,2.28
2022-10-09T10:45:11.525Z,4.30
2022-10-09T10:47:42.362Z,3.33
2022-10-09T10:50:17.154Z,78.03
2022-10-09T10:52:57.613Z,4.97
2022-10-09T10:55:27.770Z,4.35
2022-10-09T10:58:15.860Z,5.53
2022-10-09T11:00:48.292Z,4.35
2022-10-09T11:03:19.656Z,3.10
2022-10-09T11:05:48.536Z,2.83
2022-10-09T11:08:27.823Z,5.68
2022-10-09T11:10:56.036Z,6.75
2022-10-09T11:13:33.803Z,2.50
2022-10-09T11:16:16.203Z,2.58
2022-10-09T11:18:46.607Z,3.17
2022-10-09T11:21:13.891Z,4.55
2022-10-09T11:24:06.742Z,1.85
2022-10-09T11:26:34.448Z,7.15
2022-10-09T11:29:05.062Z,2.42
2022-10-09T11:31:37.559Z,3.78
2022-10-09T11:34:26.041Z,3.28
2022-10-09T11:36:54.105Z,2.53
2022-10-09T11:39:23.809Z,2.88
2022-10-09T11:41:52.392Z,2.60
2022-10-09T11:44:25.521Z,2.17
2022-10-09T11:46:55.591Z,3.00
2022-10-09T11:49:46.523Z,3.30
2022-10-09T11:52:22.776Z,2.30
2022-10-09T11:54:50.213Z,2.90
2022-10-09T11:57:27.361Z,2.20
2022-10-09T12:00:04.313Z,2.33
2022-10-09T12:02:32.347Z,2.72
2022-10-09T12:04:59.859Z,2.38
2022-10-09T12:07:31.665Z,6.22
2022-10-09T12:10:01.545Z,3.22
2022-10-09T12:14:56.446Z,1.27
2022-10-09T12:17:23.750Z,4.68
2022-10-09T12:19:56.232Z,4.82
2022-10-09T12:22:31.929Z,3.78
2022-10-09T12:25:03.346Z,2.47
2022-10-09T12:27:38.925Z,4.57
2022-10-09T12:30:09.161Z,2.25
2022-10-09T12:32:38.335Z,3.30
2022-10-09T12:35:13.395Z,3.13
2022-10-09T12:37:40.683Z,3.33
2022-10-09T12:40:15.321Z,2.70
2022-10-09T12:42:43.608Z,1.20
2022-10-09T12:45:37.189Z,2.00
2022-10-09T12:48:10.331Z,2.80
2022-10-09T12:50:37.660Z,3.78
2022-10-09T12:53:04.882Z,1.05
2022-10-09T12:55:33.451Z,2.20
2022-10-09T12:58:03.532Z,7.15
2022-10-09T13:00:34.780Z,3.55
2022-10-09T13:03:02.553Z,1.13
2022-10-09T13:05:39.583Z,2.97
2022-10-09T13:08:07.634Z,2.30
2022-10-09T13:10:34.973Z,2.67
2022-10-09T13:13:02.305Z,2.05
2022-10-09T13:15:29.576Z,4.35
2022-10-09T13:17:56.920Z,7.18
2022-10-09T13:20:26.098Z,2.80
2022-10-09T13:22:56.446Z,1.67
2022-10-09T13:25:25.136Z,1.63
2022-10-09T13:27:52.597Z,2.55
2022-10-09T13:30:20.109Z,4.15
2022-10-09T13:32:47.411Z,3.15
2022-10-09T13:35:14.670Z,3.75
2022-10-09T13:37:42.226Z,4.05
2022-10-09T13:40:15.612Z,2.65
2022-10-09T13:42:43.419Z,2.10
2022-10-09T13:45:11.111Z,1.67
2022-10-09T13:47:38.623Z,2.28
2022-10-09T13:50:06.085Z,3.92
2022-10-09T13:52:33.394Z,4.35
2022-10-09T13:55:00.699Z,3.92
2022-10-09T13:57:28.001Z,1.30
2022-10-09T13:59:55.326Z,5.22
2022-10-09T14:02:22.611Z,2.72
2022-10-09T14:04:49.865Z,5.93
2022-10-09T14:07:17.172Z,2.17
2022-10-09T14:09:44.470Z,2.75
2022-10-09T14:12:11.770Z,2.90
2022-10-09T14:14:39.027Z,1.50
2022-10-09T14:17:06.315Z,5.35
2022-10-09T14:19:33.562Z,2.45
2022-10-09T14:22:00.905Z,5.78
2022-10-09T14:24:28.287Z,1.08
2022-10-09T14:26:55.616Z,3.40
2022-10-09T14:29:22.943Z,2.97
2022-10-09T14:31:51.569Z,5.60
2022-10-09T14:34:18.954Z,2.25
2022-10-09T14:36:46.343Z,5.20
2022-10-09T14:39:13.630Z,1.60
2022-10-09T14:41:41.032Z,1.75
2022-10-09T14:44:09.336Z,3.22
2022-10-09T14:46:38.675Z,2.80
2022-10-09T14:49:10.258Z,2.95
2022-10-09T14:51:38.298Z,4.88
2022-10-09T14:54:06.237Z,3.13
2022-10-09T14:56:33.707Z,5.68
2022-10-09T14:59:03.557Z,5.70
2022-10-09T15:01:30.923Z,3.03
2022-10-09T15:04:00.367Z,4.22
2022-10-09T15:06:28.190Z,3.75
2022-10-09T15:08:57.163Z,2.58
2022-10-09T15:11:26.919Z,2.40
2022-10-09T15:13:54.180Z,3.42
2022-10-09T15:16:21.591Z,3.78
2022-10-09T15:18:52.999Z,2.97
2022-10-09T15:21:21.658Z,2.05
2022-10-09T15:23:50.120Z,4.32
2022-10-09T15:26:17.591Z,2.97
2022-10-09T15:28:45.887Z,5.22
2022-10-09T15:31:27.115Z,6.03
2022-10-09T15:33:56.273Z,2.08
2022-10-09T15:38:54.145Z,10.10
2022-10-09T15:41:24.974Z,3.45
2022-10-09T15:43:52.821Z,2.38
2022-10-09T15:46:20.275Z,4.20
2022-10-09T15:48:48.180Z,5.10
2022-10-09T15:51:15.714Z,4.18
2022-10-09T15:53:51.061Z,7.47
2022-10-09T15:56:21.779Z,8.50
2022-10-09T15:58:49.406Z,5.28
2022-10-09T16:01:17.421Z,5.70
2022-10-09T16:03:44.851Z,5.20
2022-10-09T16:06:13.451Z,3.53
2022-10-09T16:08:40.873Z,3.97
2022-10-09T16:13:42.493Z,5.53
2022-10-09T16:16:12.526Z,3.97
2022-10-09T16:18:39.867Z,2.55
2022-10-09T16:21:11.436Z,3.28
2022-10-09T16:23:38.743Z,7.43
2022-10-09T16:26:06.096Z,4.55
2022-10-09T16:28:33.846Z,4.57
2022-10-09T16:31:01.436Z,6.55
2022-10-09T16:33:28.729Z,5.28
2022-10-09T16:35:55.987Z,7.75
2022-10-09T16:38:23.259Z,7.50
2022-10-09T16:41:02.035Z,5.50
2022-10-09T16:43:30.285Z,3.25
2022-10-09T16:46:08.530Z,5.47
2022-10-09T16:48:36.802Z,6.55
2022-10-09T16:51:08.886Z,6.15
2022-10-09T16:53:36.160Z,6.90
2022-10-09T16:56:16.795Z,7.50
2022-10-09T16:58:44.625Z,7.28
2022-10-09T17:01:12.508Z,8.93
2022-10-09T17:03:41.271Z,8.38
2022-10-09T17:06:12.787Z,28.23
2022-10-09T17:08:40.534Z,29.92
2022-10-09T17:11:11.780Z,11.10
2022-10-09T17:13:39.495Z,10.77
2022-10-09T17:16:07.661Z,10.43
2022-10-09T17:18:35.741Z,11.25
2022-10-09T17:21:06.798Z,18.80
2022-10-09T17:23:34.114Z,16.25
2022-10-09T17:26:05.795Z,17.52
2022-10-09T17:28:34.492Z,17.08
2022-10-09T17:31:05.769Z,17.73
2022-10-09T17:33:33.422Z,15.98
2022-10-09T17:36:03.195Z,16.25
2022-10-09T17:38:30.970Z,14.90
2022-10-09T17:40:58.351Z,14.20
2022-10-09T17:43:25.604Z,13.68
2022-10-09T17:45:52.921Z,15.80
2022-10-09T17:48:20.233Z,16.15
2022-10-09T17:50:51.590Z,17.08
2022-10-09T17:53:18.831Z,18.45
2022-10-09T17:55:46.151Z,15.32
2022-10-09T17:58:13.517Z,19.88
2022-10-09T18:00:41.004Z,21.70
2022-10-09T18:03:08.354Z,26.15
2022-10-09T18:05:41.406Z,29.33
2022-10-09T18:08:08.789Z,34.40
2022-10-09T18:10:37.268Z,33.70
2022-10-09T18:13:05.256Z,29.90
2022-10-09T18:15:32.515Z,36.05
2022-10-09T18:17:59.764Z,33.78
2022-10-09T18:20:27.138Z,42.00
2022-10-09T18:22:54.411Z,38.55
2022-10-09T18:25:21.690Z,46.42
2022-10-09T18:27:49.170Z,41.80
2022-10-09T18:30:17.107Z,37.80
2022-10-09T18:32:44.401Z,43.90
2022-10-09T18:35:12.884Z,38.70
2022-10-09T18:37:40.149Z,47.25
2022-10-09T18:40:08.270Z,45.05
2022-10-09T18:42:35.872Z,39.22
2022-10-09T18:45:04.408Z,41.65
2022-10-09T18:47:34.192Z,38.97
2022-10-09T18:50:02.959Z,41.10
2022-10-09T18:52:30.793Z,35.13
2022-10-09T18:54:58.626Z,39.88
2022-10-09T18:57:26.422Z,34.55
2022-10-09T18:59:54.963Z,35.97
2022-10-09T19:02:26.433Z,28.67
2022-10-09T19:04:57.966Z,25.73
2022-10-09T19:07:27.109Z,30.92
2022-10-09T19:09:57.299Z,29.60
2022-10-09T19:12:25.417Z,43.28
2022-10-09T19:14:53.844Z,42.92
2022-10-09T19:17:21.228Z,44.30
2022-10-09T19:19:49.857Z,38.05
2022-10-09T19:22:22.877Z,39.33
2022-10-09T19:24:50.976Z,43.65
2022-10-09T19:27:21.626Z,36.28
2022-10-09T19:29:51.815Z,33.47
2022-10-09T19:32:22.915Z,38.15
2022-10-09T19:34:51.017Z,39.67
2022-10-09T19:37:18.680Z,39.83
2022-10-09T19:39:48.601Z,36.83
2022-10-09T19:42:19.451Z,40.25
2022-10-09T19:44:47.896Z,32.38
2022-10-09T19:47:16.016Z,32.00
2022-10-09T19:49:43.352Z,31.52
2022-10-09T19:52:10.622Z,26.42
2022-10-09T19:54:38.748Z,28.58
2022-10-09T19:57:06.036Z,29.45
2022-10-09T19:59:33.394Z,28.13
2022-10-09T20:02:00.825Z,25.48
2022-10-09T20:04:28.260Z,28.40
2022-10-09T20:06:55.602Z,29.33
2022-10-09T20:09:22.958Z,36.60
2022-10-09T20:11:50.231Z,31.55
2022-10-09T20:14:17.608Z,33.10
2022-10-09T20:16:45.026Z,31.88
2022-10-09T20:19:12.852Z,31.42
2022-10-09T20:21:40.245Z,35.08
2022-10-09T20:24:07.613Z,38.65
2022-10-09T20:26:35.555Z,38.88
2022-10-09T20:29:07.869Z,36.35
2022-10-09T20:31:35.214Z,37.30
2022-10-09T20:34:02.531Z,36.17
2022-10-09T20:36:35.378Z,54.53
2022-10-09T20:39:05.225Z,37.75
2022-10-09T20:41:34.681Z,32.08
2022-10-09T20:44:03.301Z,31.35
2022-10-09T20:46:32.007Z,32.33
2022-10-09T20:48:59.592Z,33.90
2022-10-09T20:51:26.957Z,26.38
2022-10-09T20:53:58.282Z,24.15
2022-10-09T20:56:26.601Z,32.75
2022-10-09T20:58:54.687Z,34.35
2022-10-09T21:01:22.394Z,28.92
2022-10-09T21:03:49.735Z,33.13
2022-10-09T21:06:18.390Z,35.92
2022-10-09T21:08:45.787Z,30.25
2022-10-09T21:11:16.392Z,27.23
2022-10-09T21:13:44.427Z,27.00
2022-10-09T21:16:12.809Z,31.02
2022-10-09T21:18:40.688Z,31.52
2022-10-09T21:21:15.402Z,29.45
2022-10-09T21:23:42.975Z,29.73
2022-10-09T21:26:13.938Z,27.30
2022-10-09T21:28:41.294Z,27.23
2022-10-09T21:31:09.719Z,33.10
2022-10-09T21:33:37.012Z,32.45
2022-10-09T21:36:09.732Z,31.75
2022-10-09T21:38:37.076Z,37.00
2022-10-09T21:41:04.583Z,34.42
2022-10-09T21:43:31.903Z,36.17
2022-10-09T21:46:02.068Z,35.05
2022-10-09T21:48:29.398Z,37.88
2022-10-09T21:50:57.650Z,31.20
2022-10-09T21:53:24.942Z,32.20
2022-10-09T21:55:52.238Z,31.63
2022-10-09T21:58:19.682Z,30.08
2022-10-09T22:00:47.010Z,25.80
2022-10-09T22:03:14.279Z,27.80
2022-10-09T22:05:41.593Z,33.95
2022-10-09T22:08:08.881Z,34.72
2022-10-09T22:10:36.174Z,38.05
2022-10-09T22:13:10.540Z,35.58
2022-10-09T22:15:47.702Z,36.55
2022-10-09T22:18:18.134Z,37.63
2022-10-09T22:20:46.400Z,37.38
2022-10-09T22:23:15.345Z,40.67
2022-10-09T22:25:42.670Z,43.53
2022-10-09T22:28:10.047Z,35.40
2022-10-09T22:30:37.568Z,31.92
2022-10-09T22:33:04.941Z,30.73
2022-10-09T22:35:32.241Z,35.03
2022-10-09T22:37:59.509Z,26.55
2022-10-09T22:40:26.963Z,20.13
2022-10-09T22:42:54.259Z,21.30
2022-10-09T22:45:21.562Z,24.58
2022-10-09T22:47:48.844Z,21.40
2022-10-09T22:50:16.142Z,23.65
2022-10-09T22:52:43.389Z,19.17
2022-10-09T22:55:10.893Z,20.17
2022-10-09T22:57:38.239Z,23.60
2022-10-09T23:00:06.194Z,24.40
2022-10-09T23:02:33.501Z,20.05
2022-10-09T23:05:00.820Z,19.67
2022-10-09T23:07:28.096Z,26.92
2022-10-09T23:09:55.403Z,19.70
2022-10-09T23:12:22.667Z,29.75
2022-10-09T23:14:49.951Z,26.90
2022-10-09T23:17:17.319Z,23.95
2022-10-09T23:19:45.948Z,22.60
2022-10-09T23:22:13.262Z,19.58
2022-10-09T23:24:40.578Z,17.42
2022-10-09T23:27:07.887Z,19.67
2022-10-09T23:29:35.163Z,21.95
2022-10-09T23:32:02.484Z,19.80
2022-10-09T23:34:29.772Z,20.48
2022-10-09T23:36:57.051Z,15.65
2022-10-09T23:39:24.386Z,18.70
2022-10-09T23:41:51.664Z,16.88
2022-10-09T23:44:22.022Z,14.45
2022-10-09T23:46:49.663Z,14.63
2022-10-09T23:49:17.004Z,17.52
2022-10-09T23:51:44.323Z,20.13
2022-10-09T23:54:11.683Z,16.92
2022-10-09T23:56:39.023Z,16.13
2022-10-09T23:59:06.919Z,19.45
